Baglione, Daniel
United StatesManBorn 19301981 – 2017Runner id 29116
Events
66
58 race dates
Best pace
8.557
km/h · 1984
Best finish
73rd
of 152 · 2015
Distance raced
7,478
km · splits not double-counted
Pace over time
km/h · higher is faster
Pace over time: 58 races and 8 splits from 1981 to 2017, ranging from 0.77 to 9.85 kilometres per hour, where higher is faster. A second, age-graded series is drawn above it; the gap between the two is the age credit.
- Actual pace
- Age-graded pace
- Split of a race already plotted
Results
| Date | Event | Distance | Result | Pace km/h | Placing |
|---|---|---|---|---|---|
| 1981-04-12 | American River 50 Mile Endurance RunUnited States | 50mi | 11:28:30 h | 7.012 | 258/270 |
| 1982-06-05 | Nugget 50 Mile Trail RunUnited States | 50mi | 11:52:20 h | 6.778 | 12/12 |
| 1982-09-17 | Lake Tahoe 72 MilerUnited States | 72mi | 17:30:57 h | 6.615 | 61/62 |
| 1983-03-26 | 50mi | 10:06:46 h | 7.957 | 31/33 | |
| 1983-09-24 | 24h | 122.100 km | 5.088 | 10/15 | |
| 1984-02-11 | Jed Smith Ultra Classic - 50 Mile RaceUnited States | 50mi | 9:24:13 h | 8.557 | 80/86 |
| 1984-04-28 | Steamroller UltraUnited States | 100km | 15:50:25 h | 6.313 | 52/55 |
| 1984-10-21 | California RRC 50 MileUnited States | 50mi | 9:48:54 h | 8.198 | 16/17 |
| 1984-11-18 | San Juan Trail 50 MileUnited States | 50mi | 11:58:50 h | 6.716 | 87/89 |
| 1987-09-20 | Pacific Crest Trail 50 KmUnited States | 50km | 8:42:22 h | 5.743 | 88/89 |
| 1988-02-06 | Jed Smith Ultra Classic - 50 Mile RaceUnited States | 50mi | 9:47:40 h | 8.216 | 67/69 |
| 1988-04-10 | American River 50 Mile Endurance RunUnited States | 50mi | 11:52:05 h | 6.780 | 212/225 |
| 1989-08-19 | 100mi | 28:33:54 h | 5.634 | 93/139 | |
| 1989-12-29 | Across the Years, 72hUnited States | 72h | 123.200 km | 1.711 | 9/10 |
| 1990-03-10 | Way Too Cool 50K Endurance RunUnited States | 50km | 7:12:02 h | 6.944 | 121/130 |
| 1991-03-09 | Way Too Cool 50K Endurance RunUnited States | 50km | 7:25:23 h | 6.736 | 206/216 |
| 1991-10-05 | 100mi | 27:43:30 h | 5.805 | 34/49 | |
| 1991-12-28 | Gibson Ranch 6-Day ClassicUnited States | 6d | 421.648 km | 2.928 | 14/23 |
| 1992-03-14 | Way Too Cool 50K Endurance RunUnited States | 50km | 7:17:41 h | 6.854 | 269/283 |
| 1992-07-25 | Vermont 100 Mile Endurance RaceUnited States | 100mi | 28:22:52 h | 5.670 | 152/160 |
| 1992-10-10 | 100mi | 29:32:40 h | 5.447 | 65/67 | |
| 1993-01-01 | 6d | 111.044 km | 0.771 | 22/22 | |
| 1993-05-02 | 7d | 486.021 km | 2.893 | 14/19 | |
| 1993-05-02 | Sri Chinmoy 7 Day Race - 6d SplitUnited StatesSplit of a longer race in this career; not counted again in the distance total*Forest Hill, CA | 6d | 413.601 km | 2.872 | 14/17 |
| 1993-11-07 | Gibson Ranch 6-Day ClassicUnited States | 6d | 167.371 km | 1.162 | 16/16 |
| 1993-11-27 | Quad Dipsea Trail RunUnited States | 28mi | 8:33:26 h | 5.266 | 135/139 |
| 1994-03-12 | Way Too Cool 50K Endurance RunUnited States | 50km | 7:13:13 h | 6.925 | 297/323 |
| 1994-05-08 | 7d | 498.896 km | 2.970 | 18/26 | |
| 1994-05-08 | Sri Chinmoy 7 Day Race - 6d SplitUnited StatesSplit of a longer race in this career; not counted again in the distance total*Foresthill, CA | 6d | 426.476 km | 2.962 | 18/23 |
| 1995-05-07 | 7d | 280.025 km | 1.667 | 29/32 | |
| 1995-11-11 | 6d | 354.055 km | 2.459 | 17/21 | |
| 1995-11-11 | Gibson Ranch 6-Day Classic - 48h SplitUnited StatesSplit of a longer race in this career; not counted again in the distance total*CA | 48h | 168.981 km | 3.520 | 16/21 |
| 1995-11-11 | Gibson Ranch 6-Day Classic - 24h SplitUnited StatesSplit of a longer race in this career; not counted again in the distance total*CA | 24h | 99.779 km | 4.157 | 17/21 |
| 1996-02-03 | Jed Smith Ultra Classic - 50 Km RaceUnited States | 50km | 6:47:10 h | 7.368 | 130/134 |
| 1996-03-09 | Way Too Cool 50K Endurance RunUnited States | 50km | 7:43:50 h | 6.468 | 338/360 |
| 1997-05-17 | Silver State 50 kmUnited States | 50km | 11:10:21 h | 4.475 | 80/82 |
| 1999-11-10 | 48h | 72.195 km | 1.504 | 10/10 | |
| 1999-11-10 | Texas A&M University 48hr Run - 24h SplitUnited StatesSplit of a longer race in this career; not counted again in the distance total*CA | 24h | 72.195 km | 3.008 | 10/10 |
| 2001-05-19 | 50km | 10:43:17 h | 4.664 | 65/66 | |
| 2001-07-21 | 12h | 68.800 km | 5.733 | 14/19 | |
| 2001-11-23 | 48h | 71.985 km | 1.500 | 13/14 | |
| 2001-12-09 | OTHTC High Desert 50K UltraUnited States | 50km | 7:41:07 h | 6.506 | 192/198 |
| 2002-02-09 | Jed Smith Ultra Classic - 50 Km RaceUnited States | 50km | 7:26:58 h | 6.712 | 68/69 |
| 2002-04-27 | 50km | 10:05:00 h | 4.959 | 204/204 | |
| 2002-07-20 | 12h | 74.378 km | 6.198 | 23/31 | |
| 2002-07-20 | Jim Skophammer 12 Hour Track Run - 50km SplitUnited StatesSplit of a longer race in this career; not counted again in the distance total*CA | 50km | 7:53:01 h | 6.342 | 26/31 |
| 2002-11-09 | 50km | 7:15:51 h | 6.883 | 30/33 | |
| 2002-12-08 | OTHTC High Desert 50K UltraUnited States | 50km | 7:27:56 h | 6.697 | 176/185 |
| 2004-05-22 | Watershed Preserve 12 Hr Trail RaceUnited States | 12h | 51.880 km | 4.323 | 14/17 |
| 2004-11-06 | San Diego One Day 24-Hour RaceUnited States | 24h | 86.904 km | 3.621 | 60/73 |
Showing 1–50 of 66